Time;durP1;ratioP1;P1;durP2;ratioP2;P2;SDS_P1;SDS_P2;PMS_P1;PMS_P2;Temp;Humidity;BMP_temperature;BMP_pressure;BME280_temperature;BME280_humidity;BME280_pressure;Samples;Min_cycle;Max_cycle;Signal;HPM_P1;HPM_P2
2023/09/22 00:00:18;;;;;;;13.70;5.88;;;13.60;99.90;;;;;;5017038;28;20032;-72
2023/09/22 00:02:45;;;;;;;14.73;5.95;;;13.60;99.90;;;;;;5010650;28;20117;-74
2023/09/22 00:05:13;;;;;;;13.80;6.07;;;13.60;99.90;;;;;;5007119;28;20079;-72
2023/09/22 00:07:40;;;;;;;16.10;5.57;;;13.70;99.90;;;;;;5002158;28;20109;-72
2023/09/22 00:10:07;;;;;;;16.55;5.70;;;13.70;99.90;;;;;;5003430;28;20124;-72
2023/09/22 00:12:33;;;;;;;14.07;5.55;;;13.70;99.90;;;;;;4997219;28;20041;-72
2023/09/22 00:14:59;;;;;;;13.20;5.38;;;13.70;99.90;;;;;;5002515;28;20035;-71
2023/09/22 00:17:28;;;;;;;15.10;5.65;;;13.70;99.90;;;;;;5001150;28;20095;-72
2023/09/22 00:19:54;;;;;;;13.10;5.68;;;13.70;99.90;;;;;;5014775;28;20068;-72
2023/09/22 00:22:20;;;;;;;8.13;4.20;;;13.70;99.90;;;;;;5007265;28;20120;-72
2023/09/22 00:24:45;;;;;;;12.98;4.63;;;13.70;99.90;;;;;;5005858;28;20506;-72
2023/09/22 00:27:11;;;;;;;10.88;4.57;;;13.70;99.90;;;;;;5024545;28;20081;-72
2023/09/22 00:29:37;;;;;;;10.50;4.75;;;13.70;99.90;;;;;;5013810;28;20022;-72
2023/09/22 00:32:03;;;;;;;7.68;3.33;;;13.70;99.90;;;;;;5007001;28;20121;-73
2023/09/22 00:34:30;;;;;;;10.05;4.00;;;13.60;99.90;;;;;;5013947;28;20065;-71
2023/09/22 00:36:56;;;;;;;9.57;3.80;;;13.70;99.90;;;;;;5026361;28;20037;-71
2023/09/22 00:39:22;;;;;;;13.05;4.07;;;13.70;99.90;;;;;;5011241;28;20038;-71
2023/09/22 00:41:47;;;;;;;12.57;3.78;;;13.70;99.90;;;;;;5023414;28;20041;-73
2023/09/22 00:44:13;;;;;;;9.65;4.10;;;13.70;99.90;;;;;;5013407;28;20034;-73
2023/09/22 00:46:39;;;;;;;13.18;3.95;;;13.70;99.90;;;;;;5018093;28;20033;-72
2023/09/22 00:49:06;;;;;;;11.63;4.55;;;13.70;99.90;;;;;;5016617;28;20525;-72
2023/09/22 00:51:33;;;;;;;9.75;4.38;;;13.70;99.90;;;;;;5021178;28;20057;-72
2023/09/22 00:54:00;;;;;;;11.07;4.72;;;13.70;99.90;;;;;;5016775;28;20037;-73
2023/09/22 00:56:26;;;;;;;10.10;5.13;;;13.70;99.90;;;;;;5011100;28;20424;-72
2023/09/22 00:58:52;;;;;;;12.15;5.18;;;13.70;99.90;;;;;;5016160;28;20058;-72
2023/09/22 01:01:20;;;;;;;13.30;5.40;;;13.70;99.90;;;;;;5011486;28;20037;-73
2023/09/22 01:03:45;;;;;;;13.88;6.63;;;13.70;99.90;;;;;;5011838;28;20053;-73
2023/09/22 01:06:11;;;;;;;17.85;7.97;;;13.70;99.90;;;;;;5008743;28;20030;-72
2023/09/22 01:08:37;;;;;;;18.13;8.75;;;13.70;99.90;;;;;;5008288;28;20490;-72
2023/09/22 01:11:03;;;;;;;17.42;8.52;;;13.70;99.90;;;;;;5009008;28;20096;-72
2023/09/22 01:13:28;;;;;;;19.08;8.57;;;13.60;99.90;;;;;;5018877;28;20047;-72
2023/09/22 01:15:55;;;;;;;24.23;8.52;;;13.60;99.90;;;;;;5016586;28;20042;-72
2023/09/22 01:18:21;;;;;;;17.98;8.20;;;13.50;99.90;;;;;;5017008;28;20091;-72
2023/09/22 01:20:47;;;;;;;19.63;8.18;;;13.40;99.90;;;;;;5017837;28;20080;-72
2023/09/22 01:23:14;;;;;;;18.45;8.18;;;13.40;99.90;;;;;;5012702;28;20057;-70
2023/09/22 01:25:40;;;;;;;19.77;8.65;;;13.30;99.90;;;;;;5021488;28;20034;-71
2023/09/22 01:28:07;;;;;;;22.85;9.38;;;13.30;99.90;;;;;;5010073;28;20556;-72
2023/09/22 01:30:34;;;;;;;20.67;9.32;;;13.30;99.90;;;;;;5008088;28;20034;-72
2023/09/22 01:33:02;;;;;;;20.63;8.38;;;13.30;99.90;;;;;;5010941;28;20478;-73
2023/09/22 01:35:29;;;;;;;20.17;9.02;;;13.20;99.90;;;;;;5012657;28;20048;-71
2023/09/22 01:38:15;;;;;;;19.95;9.25;;;13.20;99.90;;;;;;5008604;28;20022;-73
2023/09/22 01:40:41;;;;;;;23.08;9.05;;;13.20;99.90;;;;;;5006288;28;20045;-72
2023/09/22 01:43:07;;;;;;;23.60;9.68;;;13.20;99.90;;;;;;5006969;28;20022;-72
2023/09/22 01:45:32;;;;;;;23.77;9.25;;;13.20;99.90;;;;;;5008129;28;20406;-72
2023/09/22 01:47:58;;;;;;;22.05;10.35;;;13.20;99.90;;;;;;5012402;28;20478;-72
2023/09/22 01:50:23;;;;;;;22.17;9.50;;;13.20;99.90;;;;;;5004496;28;20031;-72
2023/09/22 01:52:49;;;;;;;23.80;8.85;;;13.20;99.90;;;;;;5008010;28;20037;-72
2023/09/22 01:55:15;;;;;;;23.58;9.60;;;13.20;99.90;;;;;;5006216;28;20070;-72
2023/09/22 01:57:41;;;;;;;22.15;9.60;;;13.10;99.90;;;;;;5008402;28;20598;-72
2023/09/22 02:00:07;;;;;;;22.70;9.23;;;13.10;99.90;;;;;;5012756;28;20112;-72
2023/09/22 02:02:34;;;;;;;21.80;8.43;;;13.10;99.90;;;;;;5008551;28;20041;-72
2023/09/22 02:05:00;;;;;;;20.85;9.75;;;13.10;99.90;;;;;;5006020;28;20564;-72
2023/09/22 02:07:26;;;;;;;24.17;9.15;;;13.10;99.90;;;;;;5002316;28;20085;-72
2023/09/22 02:09:52;;;;;;;21.10;9.30;;;13.10;99.90;;;;;;5006339;28;20033;-71
2023/09/22 02:12:17;;;;;;;26.20;10.38;;;13.10;99.90;;;;;;5004311;28;20041;-72
2023/09/22 02:14:43;;;;;;;23.90;8.82;;;13.10;99.90;;;;;;5003976;28;20033;-72
2023/09/22 02:17:08;;;;;;;25.38;9.82;;;13.10;99.90;;;;;;5003542;28;20041;-72
2023/09/22 02:19:35;;;;;;;25.27;9.70;;;13.10;99.90;;;;;;5003885;28;20033;-71
2023/09/22 02:22:01;;;;;;;24.80;10.23;;;13.10;99.90;;;;;;5006837;28;20398;-73
2023/09/22 02:24:26;;;;;;;22.55;8.93;;;13.10;99.90;;;;;;5002141;28;20034;-73
2023/09/22 02:26:52;;;;;;;23.05;9.68;;;13.10;99.90;;;;;;5009415;28;20038;-73
2023/09/22 02:29:18;;;;;;;19.88;8.90;;;13.00;99.90;;;;;;5008366;28;20134;-71
2023/09/22 02:31:43;;;;;;;21.65;9.23;;;13.10;99.90;;;;;;5016879;28;20038;-72
2023/09/22 02:34:09;;;;;;;22.60;8.38;;;13.10;99.90;;;;;;5008876;28;20456;-73
2023/09/22 02:36:34;;;;;;;20.92;8.15;;;13.10;99.90;;;;;;5006569;28;20410;-74
2023/09/22 02:39:00;;;;;;;28.80;8.50;;;13.10;99.90;;;;;;5007748;28;20030;-72
2023/09/22 02:41:26;;;;;;;20.48;8.05;;;13.10;99.90;;;;;;5007869;28;20042;-72
2023/09/22 02:43:51;;;;;;;19.25;7.57;;;13.10;99.90;;;;;;5007528;28;20054;-73
2023/09/22 02:46:17;;;;;;;22.30;7.97;;;13.10;99.90;;;;;;5009308;28;20034;-71
2023/09/22 02:48:42;;;;;;;15.70;7.38;;;13.10;99.90;;;;;;5014502;28;20046;-71
2023/09/22 02:51:08;;;;;;;16.52;6.95;;;13.10;99.90;;;;;;5007807;28;20034;-71
2023/09/22 02:53:34;;;;;;;14.45;6.72;;;13.10;99.90;;;;;;5007934;28;20048;-72
2023/09/22 02:56:06;;;;;;;18.80;6.80;;;13.10;99.90;;;;;;5004508;28;20048;-72
2023/09/22 02:58:32;;;;;;;17.75;6.57;;;13.10;99.90;;;;;;5003069;28;20050;-72
2023/09/22 03:00:58;;;;;;;14.65;6.60;;;13.10;99.90;;;;;;5003390;28;20030;-72
2023/09/22 03:03:24;;;;;;;18.45;6.65;;;13.10;99.90;;;;;;5001919;28;20049;-73
2023/09/22 03:05:49;;;;;;;23.67;6.95;;;13.10;99.90;;;;;;5003824;28;20490;-72
2023/09/22 03:08:15;;;;;;;13.23;5.93;;;13.10;99.90;;;;;;4999912;28;20046;-72
2023/09/22 03:10:40;;;;;;;18.70;7.20;;;13.10;99.90;;;;;;5002923;28;20457;-72
2023/09/22 03:13:06;;;;;;;16.88;6.90;;;13.10;99.90;;;;;;5010314;28;20520;-72
2023/09/22 03:15:34;;;;;;;15.90;6.03;;;13.10;99.90;;;;;;5002838;28;20038;-71
2023/09/22 03:18:00;;;;;;;16.63;6.20;;;13.10;99.90;;;;;;4998818;28;20703;-72
2023/09/22 03:20:26;;;;;;;14.25;6.13;;;13.10;99.90;;;;;;5003234;28;20026;-72
2023/09/22 03:22:52;;;;;;;14.88;6.10;;;13.10;99.90;;;;;;5006436;28;20021;-72
2023/09/22 03:25:17;;;;;;;14.35;5.85;;;13.10;99.90;;;;;;5003399;28;20026;-71
2023/09/22 03:27:43;;;;;;;14.10;5.68;;;13.10;99.90;;;;;;5005047;28;20026;-72
2023/09/22 03:30:10;;;;;;;10.75;5.78;;;13.20;99.90;;;;;;5003184;28;20029;-72
2023/09/22 03:32:37;;;;;;;17.27;5.55;;;13.10;99.90;;;;;;5002964;28;20030;-72
2023/09/22 03:35:07;;;;;;;14.98;5.65;;;13.10;99.90;;;;;;5016790;28;20398;-72
2023/09/22 03:37:34;;;;;;;11.73;4.90;;;13.10;99.90;;;;;;5004143;28;20141;-72
2023/09/22 03:40:10;;;;;;;14.07;5.35;;;13.10;99.90;;;;;;5003640;28;20048;-72
2023/09/22 03:42:36;;;;;;;12.52;5.47;;;13.10;99.90;;;;;;5004760;28;20037;-72
2023/09/22 03:45:01;;;;;;;15.90;5.55;;;13.10;99.90;;;;;;5005462;28;20037;-72
2023/09/22 03:47:27;;;;;;;18.33;5.75;;;13.10;99.90;;;;;;5002605;28;20050;-72
2023/09/22 03:49:52;;;;;;;12.82;5.05;;;13.10;99.90;;;;;;5003527;28;20034;-72
2023/09/22 03:52:18;;;;;;;13.20;4.75;;;13.10;99.90;;;;;;4998431;28;20037;-72
2023/09/22 03:54:44;;;;;;;11.13;4.28;;;13.10;99.90;;;;;;5007616;28;20081;-71
2023/09/22 03:57:10;;;;;;;12.80;4.43;;;13.10;99.90;;;;;;5007630;28;20042;-72
2023/09/22 03:59:35;;;;;;;12.88;4.53;;;13.00;99.90;;;;;;5006281;28;20045;-72
2023/09/22 04:02:01;;;;;;;14.75;5.22;;;13.00;99.90;;;;;;5000158;28;20030;-72
2023/09/22 04:04:30;;;;;;;14.82;5.32;;;13.00;99.90;;;;;;5008838;28;20406;-71
2023/09/22 04:06:57;;;;;;;12.10;4.47;;;13.00;99.90;;;;;;5007775;28;20509;-72
2023/09/22 04:09:23;;;;;;;14.57;4.78;;;13.00;99.90;;;;;;5000941;28;20445;-72
2023/09/22 04:11:49;;;;;;;13.13;4.50;;;13.00;99.90;;;;;;5008777;28;20030;-72
2023/09/22 04:14:15;;;;;;;9.38;3.85;;;13.00;99.90;;;;;;5005979;28;20042;-73
2023/09/22 04:16:40;;;;;;;14.65;4.50;;;13.00;99.90;;;;;;5010094;28;20030;-71
2023/09/22 04:19:09;;;;;;;13.65;4.30;;;13.00;99.90;;;;;;5011301;28;20041;-72
2023/09/22 04:21:42;;;;;;;20.25;4.20;;;13.00;99.90;;;;;;5014788;28;20084;-72
2023/09/22 04:24:09;;;;;;;10.27;4.00;;;13.00;99.90;;;;;;5011664;28;20459;-71
2023/09/22 04:26:42;;;;;;;11.05;4.03;;;13.00;99.90;;;;;;5007966;28;20077;-73
2023/09/22 04:29:08;;;;;;;10.90;3.95;;;13.00;99.90;;;;;;5009343;28;20025;-73
2023/09/22 04:31:34;;;;;;;12.80;3.88;;;12.90;99.90;;;;;;5009492;28;20099;-73
2023/09/22 04:34:01;;;;;;;9.10;4.22;;;12.90;99.90;;;;;;5012475;28;20420;-71
2023/09/22 04:36:27;;;;;;;10.15;3.95;;;12.90;99.90;;;;;;5007897;28;20042;-74
2023/09/22 04:38:52;;;;;;;10.35;4.20;;;12.90;99.90;;;;;;5011178;28;20041;-72
2023/09/22 04:41:22;;;;;;;15.02;4.88;;;12.90;99.90;;;;;;5009564;28;20038;-71
2023/09/22 04:43:48;;;;;;;12.60;4.20;;;12.90;99.90;;;;;;5019492;28;20065;-72
2023/09/22 04:46:15;;;;;;;12.05;3.80;;;12.90;99.90;;;;;;5012111;28;20401;-71
2023/09/22 04:48:41;;;;;;;10.82;4.22;;;13.00;99.90;;;;;;5017294;28;20034;-72
2023/09/22 04:51:06;;;;;;;8.73;3.72;;;13.00;99.90;;;;;;5010230;28;20038;-71
2023/09/22 04:53:32;;;;;;;10.93;4.18;;;13.00;99.90;;;;;;5006999;28;20049;-74
2023/09/22 04:56:06;;;;;;;14.25;5.15;;;13.00;99.90;;;;;;5012373;28;20424;-73
2023/09/22 04:58:32;;;;;;;8.90;3.72;;;13.00;99.90;;;;;;5009258;28;20065;-73
2023/09/22 05:01:01;;;;;;;12.45;3.67;;;12.90;99.90;;;;;;5013362;28;20038;-73
2023/09/22 05:03:28;;;;;;;11.18;4.20;;;12.90;99.90;;;;;;5003191;28;20099;-73
2023/09/22 05:05:54;;;;;;;11.23;3.72;;;12.90;99.90;;;;;;5004534;28;20030;-72
2023/09/22 05:08:20;;;;;;;9.10;4.20;;;12.90;99.90;;;;;;5006411;28;20100;-73
2023/09/22 05:10:49;;;;;;;8.52;3.47;;;12.90;99.90;;;;;;5013389;28;20041;-72
2023/09/22 05:13:16;;;;;;;8.32;3.53;;;12.90;99.90;;;;;;5006105;28;20065;-74
2023/09/22 05:15:43;;;;;;;8.85;3.65;;;12.90;99.90;;;;;;5007006;28;20397;-72
2023/09/22 05:18:13;;;;;;;9.60;4.65;;;12.90;99.90;;;;;;5001675;28;20052;-72
2023/09/22 05:20:42;;;;;;;8.48;3.53;;;12.90;99.90;;;;;;5005848;28;20506;-73
2023/09/22 05:23:08;;;;;;;10.20;4.35;;;12.90;99.90;;;;;;5013882;28;20038;-72
2023/09/22 05:25:44;;;;;;;7.85;3.35;;;12.90;99.90;;;;;;5007206;28;20035;-72
2023/09/22 05:28:10;;;;;;;7.68;3.58;;;12.90;99.90;;;;;;5003036;28;20036;-72
2023/09/22 05:30:40;;;;;;;14.85;3.88;;;12.90;99.90;;;;;;5005615;28;20522;-73
2023/09/22 05:33:10;;;;;;;11.30;4.18;;;12.90;99.90;;;;;;5013477;28;20803;-73
2023/09/22 05:35:35;;;;;;;8.68;2.70;;;12.90;99.90;;;;;;5006691;28;20125;-72
2023/09/22 05:38:03;;;;;;;8.65;3.97;;;12.90;99.90;;;;;;5004127;28;20149;-72
2023/09/22 05:40:32;;;;;;;9.07;3.50;;;12.90;99.90;;;;;;5007361;28;20071;-72
2023/09/22 05:42:58;;;;;;;9.80;3.20;;;12.90;99.90;;;;;;5008221;28;20026;-72
2023/09/22 05:45:23;;;;;;;6.05;3.47;;;12.80;99.90;;;;;;5005881;28;20220;-72
2023/09/22 05:47:49;;;;;;;11.00;3.42;;;12.80;99.90;;;;;;5002780;28;20036;-72
2023/09/22 05:50:14;;;;;;;7.10;2.92;;;12.80;99.90;;;;;;5009229;28;20034;-72
2023/09/22 05:52:40;;;;;;;9.82;3.75;;;12.80;99.90;;;;;;5012644;28;20037;-72
2023/09/22 05:55:06;;;;;;;7.57;3.10;;;12.80;99.90;;;;;;5006765;28;20041;-72
2023/09/22 05:57:35;;;;;;;7.35;3.30;;;12.80;99.90;;;;;;5002774;28;20085;-72
2023/09/22 06:00:00;;;;;;;9.23;3.30;;;12.80;99.90;;;;;;5006162;28;20046;-72
2023/09/22 06:02:26;;;;;;;14.45;3.22;;;12.80;99.90;;;;;;5003312;28;20034;-71
2023/09/22 06:04:55;;;;;;;8.18;3.53;;;12.90;99.90;;;;;;5005729;28;20054;-71
2023/09/22 06:07:22;;;;;;;12.88;3.55;;;13.00;99.90;;;;;;5008843;28;20030;-73
2023/09/22 06:09:48;;;;;;;5.75;2.65;;;13.00;99.90;;;;;;5007276;28;20117;-73
2023/09/22 06:12:13;;;;;;;8.10;3.30;;;13.10;99.90;;;;;;5005183;28;20145;-71
2023/09/22 06:14:39;;;;;;;8.77;3.33;;;13.20;99.90;;;;;;5006081;28;20540;-71
2023/09/22 06:17:05;;;;;;;4.28;2.15;;;13.30;99.90;;;;;;5007535;28;20112;-71
2023/09/22 06:19:31;;;;;;;7.53;2.20;;;13.30;99.90;;;;;;5005423;28;20049;-71
2023/09/22 06:21:57;;;;;;;7.38;2.13;;;13.40;99.90;;;;;;5014629;28;20037;-72
2023/09/22 06:24:23;;;;;;;6.78;2.83;;;13.40;99.90;;;;;;5015815;28;20026;-71
2023/09/22 06:26:50;;;;;;;5.05;2.05;;;13.40;99.90;;;;;;5009588;28;20034;-71
2023/09/22 06:29:17;;;;;;;7.90;2.63;;;13.40;99.90;;;;;;5004553;28;20145;-74
2023/09/22 06:31:43;;;;;;;3.05;1.60;;;13.30;99.90;;;;;;5007097;28;20129;-72
2023/09/22 06:34:09;;;;;;;6.80;1.90;;;13.40;99.90;;;;;;5005459;28;20080;-72
2023/09/22 06:36:35;;;;;;;5.47;2.22;;;13.40;99.90;;;;;;5008132;28;20050;-71
2023/09/22 06:39:07;;;;;;;6.00;2.05;;;13.40;99.90;;;;;;5005004;28;20038;-72
2023/09/22 06:41:34;;;;;;;5.47;2.42;;;13.40;99.90;;;;;;5006677;28;20089;-72
2023/09/22 06:44:02;;;;;;;3.35;1.77;;;13.40;99.90;;;;;;5003829;28;20074;-73
2023/09/22 06:46:28;;;;;;;3.80;1.40;;;13.40;99.90;;;;;;5002135;28;20585;-72
2023/09/22 06:48:55;;;;;;;3.95;1.60;;;13.50;99.90;;;;;;5007654;28;20030;-71
2023/09/22 06:51:21;;;;;;;5.10;1.80;;;13.40;99.90;;;;;;5003235;28;20069;-73
2023/09/22 06:53:47;;;;;;;6.10;2.08;;;13.40;99.90;;;;;;5007523;28;20490;-72
2023/09/22 06:56:13;;;;;;;6.03;1.63;;;13.40;99.90;;;;;;5003638;28;20033;-73
2023/09/22 06:58:40;;;;;;;5.93;1.67;;;13.50;99.90;;;;;;5006937;28;20038;-72
2023/09/22 07:01:10;;;;;;;6.05;1.52;;;13.40;99.90;;;;;;5004099;28;20034;-71
2023/09/22 07:03:37;;;;;;;8.55;2.05;;;13.50;99.90;;;;;;5004748;28;20045;-71
2023/09/22 07:06:03;;;;;;;6.78;1.80;;;13.40;99.90;;;;;;5006993;28;20497;-71
2023/09/22 07:08:29;;;;;;;7.97;1.70;;;13.50;99.90;;;;;;5003069;28;20529;-71
2023/09/22 07:11:03;;;;;;;3.42;1.52;;;13.50;99.90;;;;;;5000656;28;20041;-72
2023/09/22 07:13:29;;;;;;;2.30;1.15;;;13.60;99.90;;;;;;5006728;28;20037;-72
2023/09/22 07:15:56;;;;;;;6.35;1.90;;;13.60;99.90;;;;;;5016654;28;20521;-72
2023/09/22 07:18:22;;;;;;;4.40;1.50;;;13.60;99.90;;;;;;5004107;28;20068;-71
2023/09/22 07:20:48;;;;;;;4.15;1.23;;;13.60;99.90;;;;;;5008754;28;20050;-72
2023/09/22 07:23:14;;;;;;;3.03;1.25;;;13.70;99.90;;;;;;5001623;28;20080;-71
2023/09/22 07:25:40;;;;;;;2.63;1.15;;;13.80;99.90;;;;;;4997045;28;20106;-72
2023/09/22 07:28:07;;;;;;;4.25;1.52;;;13.90;99.90;;;;;;5004242;28;20120;-72
2023/09/22 07:30:34;;;;;;;4.55;1.30;;;14.10;99.90;;;;;;5003398;28;20505;-73
2023/09/22 07:33:00;;;;;;;3.00;1.10;;;14.20;99.90;;;;;;5003180;28;20034;-71
2023/09/22 07:35:26;;;;;;;4.03;1.30;;;14.30;99.90;;;;;;5006588;28;20044;-73
2023/09/22 07:37:52;;;;;;;1.63;0.70;;;14.40;99.90;;;;;;5004525;28;20133;-72
2023/09/22 07:40:17;;;;;;;2.53;1.02;;;14.40;99.90;;;;;;4999786;28;20053;-72
2023/09/22 07:42:44;;;;;;;1.42;0.70;;;14.50;99.90;;;;;;5001077;28;20033;-72
2023/09/22 07:45:11;;;;;;;3.05;0.80;;;14.60;99.90;;;;;;5004325;28;20042;-72
2023/09/22 07:47:38;;;;;;;1.92;1.17;;;14.80;99.90;;;;;;4998161;28;20609;-71
2023/09/22 07:50:07;;;;;;;3.28;0.90;;;14.80;99.90;;;;;;5004417;28;20057;-72
2023/09/22 07:52:34;;;;;;;2.67;0.90;;;14.80;99.90;;;;;;4998554;28;20495;-72
2023/09/22 07:55:01;;;;;;;1.83;0.60;;;14.80;99.90;;;;;;5017787;28;20030;-72
2023/09/22 07:57:30;;;;;;;1.40;0.52;;;14.80;99.90;;;;;;5002394;28;20046;-71
2023/09/22 07:59:56;;;;;;;3.50;1.10;;;14.70;99.90;;;;;;5013685;28;20541;-71
2023/09/22 08:02:22;;;;;;;6.15;0.73;;;14.60;99.90;;;;;;5009403;28;20046;-72
2023/09/22 08:04:48;;;;;;;0.85;0.50;;;14.50;99.90;;;;;;5012491;28;20114;-72
2023/09/22 08:07:13;;;;;;;2.00;0.65;;;14.50;99.90;;;;;;5004601;28;20033;-73
2023/09/22 08:09:40;;;;;;;3.70;0.60;;;14.50;99.90;;;;;;5004303;28;20042;-72
2023/09/22 08:12:07;;;;;;;1.67;0.60;;;14.60;99.90;;;;;;5005226;28;20719;-70
2023/09/22 08:14:34;;;;;;;2.60;0.60;;;14.60;99.90;;;;;;5005203;28;20128;-72
2023/09/22 08:17:07;;;;;;;1.83;0.50;;;14.80;99.90;;;;;;5005007;28;20739;-71
2023/09/22 08:19:33;;;;;;;1.85;0.50;;;14.80;99.90;;;;;;5004371;28;20038;-72
2023/09/22 08:21:59;;;;;;;2.30;0.40;;;14.90;99.90;;;;;;5006866;28;20725;-72
2023/09/22 08:24:25;;;;;;;1.15;0.30;;;14.90;99.90;;;;;;5004699;28;20585;-72
2023/09/22 08:26:50;;;;;;;4.07;0.82;;;15.00;99.90;;;;;;5008587;28;20113;-73
2023/09/22 08:29:16;;;;;;;5.30;0.60;;;15.10;99.90;;;;;;5009122;28;20033;-73
2023/09/22 08:31:41;;;;;;;1.30;0.30;;;15.20;99.90;;;;;;5006871;28;20067;-72
2023/09/22 08:34:07;;;;;;;1.67;0.60;;;15.30;99.90;;;;;;5017500;28;20061;-71
2023/09/22 08:36:33;;;;;;;1.58;0.40;;;15.60;99.90;;;;;;5002431;28;20038;-73
2023/09/22 08:38:59;;;;;;;1.00;0.40;;;15.80;99.90;;;;;;5005027;28;20091;-72
2023/09/22 08:41:26;;;;;;;0.55;0.35;;;15.90;99.90;;;;;;5006014;28;20038;-71
2023/09/22 08:43:57;;;;;;;0.90;0.30;;;15.80;99.90;;;;;;5016522;28;20030;-72
2023/09/22 08:46:23;;;;;;;1.00;0.55;;;15.80;99.90;;;;;;5026034;28;20048;-73
2023/09/22 08:48:51;;;;;;;2.92;0.50;;;15.80;99.90;;;;;;5016222;28;20038;-71
2023/09/22 08:51:18;;;;;;;3.53;0.50;;;15.70;99.90;;;;;;5011146;28;20046;-72
2023/09/22 08:53:43;;;;;;;2.60;0.75;;;15.60;99.90;;;;;;5002969;28;20806;-72
2023/09/22 08:56:10;;;;;;;2.45;0.40;;;15.60;99.90;;;;;;5008270;28;20034;-72
2023/09/22 08:58:35;;;;;;;2.00;0.55;;;15.50;99.90;;;;;;5013788;28;20034;-72
2023/09/22 09:01:02;;;;;;;2.25;0.60;;;15.40;99.90;;;;;;5016391;28;20029;-71
2023/09/22 09:03:30;;;;;;;1.00;0.65;;;15.40;99.90;;;;;;5014845;28;20561;-73
2023/09/22 09:06:09;;;;;;;1.50;0.68;;;15.40;99.90;;;;;;5021136;28;20030;-72
2023/09/22 09:08:35;;;;;;;1.90;0.47;;;15.40;99.90;;;;;;5021727;28;20117;-72
2023/09/22 09:11:13;;;;;;;3.20;0.77;;;15.20;99.90;;;;;;5021998;28;20124;-71
2023/09/22 09:13:38;;;;;;;2.15;0.75;;;15.20;99.90;;;;;;5026683;28;20040;-71
2023/09/22 09:16:08;;;;;;;1.50;0.70;;;15.30;99.90;;;;;;5012101;28;20022;-71
2023/09/22 09:18:34;;;;;;;0.70;0.60;;;15.40;99.90;;;;;;5017795;28;20049;-72
2023/09/22 09:21:08;;;;;;;3.83;1.75;;;15.50;99.90;;;;;;5011962;28;20022;-71
2023/09/22 09:23:33;;;;;;;1.65;0.40;;;15.80;99.90;;;;;;5029068;28;20489;-71
2023/09/22 09:25:59;;;;;;;1.85;0.40;;;15.90;99.90;;;;;;5011181;28;20068;-72
2023/09/22 09:28:25;;;;;;;1.38;0.60;;;16.10;99.90;;;;;;5006448;28;20057;-72
2023/09/22 09:30:58;;;;;;;1.05;0.65;;;16.20;99.90;;;;;;5025290;28;20101;-72
2023/09/22 09:33:26;;;;;;;4.80;0.70;;;16.40;99.90;;;;;;5014439;28;20084;-72
2023/09/22 09:35:52;;;;;;;2.28;0.40;;;16.40;99.90;;;;;;5014052;28;20035;-71
2023/09/22 09:38:20;;;;;;;1.30;0.68;;;16.60;99.90;;;;;;5014388;28;20037;-72
2023/09/22 09:40:45;;;;;;;5.15;0.70;;;16.70;99.90;;;;;;5029778;28;20599;-72
2023/09/22 09:43:13;;;;;;;1.60;0.60;;;16.80;99.90;;;;;;5027915;28;20063;-72
2023/09/22 09:46:06;;;;;;;1.38;0.43;;;16.80;99.90;;;;;;5007529;28;20045;-73
2023/09/22 09:48:37;;;;;;;1.95;0.60;;;16.80;99.90;;;;;;5005500;28;21808;-73
2023/09/22 09:51:06;;;;;;;0.63;0.28;;;16.80;99.90;;;;;;5012981;28;20509;-72
2023/09/22 09:53:41;;;;;;;2.42;0.47;;;16.70;99.90;;;;;;5000677;28;20085;-72
2023/09/22 09:56:07;;;;;;;1.35;0.47;;;16.70;99.90;;;;;;5023762;28;20033;-71
2023/09/22 09:58:37;;;;;;;1.13;0.45;;;16.80;99.90;;;;;;5014324;28;20026;-70
2023/09/22 10:01:07;;;;;;;1.30;0.27;;;16.80;99.90;;;;;;5010704;28;20041;-71
2023/09/22 10:03:33;;;;;;;1.33;0.50;;;17.10;99.90;;;;;;5007708;28;20671;-70
2023/09/22 10:06:02;;;;;;;2.05;0.80;;;17.20;99.90;;;;;;5024525;28;20033;-73
2023/09/22 10:08:28;;;;;;;1.20;0.30;;;17.30;99.90;;;;;;5010924;28;20040;-71
2023/09/22 10:10:58;;;;;;;1.42;0.40;;;17.30;99.90;;;;;;5004297;28;20394;-73
2023/09/22 10:13:23;;;;;;;1.48;0.30;;;17.20;99.90;;;;;;5005118;28;20022;-72
2023/09/22 10:15:55;;;;;;;0.70;0.45;;;17.10;99.90;;;;;;4999498;28;20644;-72
2023/09/22 10:18:22;;;;;;;2.75;0.60;;;17.00;99.90;;;;;;5002647;28;20402;-71
2023/09/22 10:20:48;;;;;;;2.72;0.65;;;17.00;99.90;;;;;;5006702;28;20088;-71
2023/09/22 10:23:22;;;;;;;1.00;0.40;;;16.90;99.90;;;;;;5009833;28;20045;-73
2023/09/22 10:26:16;;;;;;;1.38;0.50;;;16.90;99.90;;;;;;5010049;28;20389;-74
2023/09/22 10:28:43;;;;;;;1.80;0.50;;;16.90;99.90;;;;;;5013419;28;20034;-74
2023/09/22 10:31:09;;;;;;;0.80;0.17;;;16.90;99.90;;;;;;5006216;28;20842;-73
2023/09/22 10:33:35;;;;;;;1.45;0.73;;;17.10;99.90;;;;;;5013383;28;20034;-72
2023/09/22 10:36:01;;;;;;;2.85;1.20;;;17.10;99.90;;;;;;5007084;28;20052;-73
2023/09/22 10:38:27;;;;;;;3.72;0.60;;;17.10;99.90;;;;;;5016410;28;20053;-73
2023/09/22 10:41:05;;;;;;;0.75;0.40;;;17.10;99.90;;;;;;5004447;28;20823;-72
2023/09/22 10:43:36;;;;;;;2.33;0.75;;;17.20;99.90;;;;;;5003922;28;20042;-74
2023/09/22 10:46:02;;;;;;;1.13;0.40;;;17.20;99.90;;;;;;4998101;28;20033;-73
2023/09/22 10:48:35;;;;;;;1.45;0.60;;;17.20;99.90;;;;;;5003274;28;20026;-73
2023/09/22 10:51:02;;;;;;;1.23;0.40;;;17.20;99.90;;;;;;5001210;28;20038;-72
2023/09/22 10:53:29;;;;;;;3.30;0.35;;;17.30;99.90;;;;;;5000865;28;20528;-73
2023/09/22 10:55:57;;;;;;;5.35;0.70;;;17.40;99.90;;;;;;5000441;28;20023;-72
2023/09/22 10:58:26;;;;;;;1.40;0.28;;;17.50;99.90;;;;;;4998633;28;20057;-72
2023/09/22 11:01:04;;;;;;;1.08;0.30;;;17.50;99.90;;;;;;5005022;28;20094;-73
2023/09/22 11:03:32;;;;;;;1.52;0.38;;;17.50;99.90;;;;;;4999156;28;20056;-73
2023/09/22 11:06:00;;;;;;;0.28;0.10;;;17.60;99.90;;;;;;5014479;28;20029;-71
2023/09/22 11:08:26;;;;;;;3.08;0.20;;;17.60;99.90;;;;;;5019721;28;20034;-71
2023/09/22 11:10:55;;;;;;;1.77;0.30;;;17.50;99.90;;;;;;5016112;28;20402;-71
2023/09/22 11:13:23;;;;;;;1.27;0.77;;;17.40;99.90;;;;;;4998863;28;20026;-73
2023/09/22 11:15:50;;;;;;;2.20;0.40;;;17.40;99.90;;;;;;5008016;28;20045;-71
2023/09/22 11:18:26;;;;;;;2.53;0.20;;;17.50;99.90;;;;;;5012029;28;20040;-72
2023/09/22 11:21:04;;;;;;;0.90;0.30;;;17.50;99.90;;;;;;5004505;28;20085;-72
2023/09/22 11:23:31;;;;;;;0.82;0.22;;;17.40;99.90;;;;;;5003073;28;20056;-72
2023/09/22 11:26:08;;;;;;;1.95;0.20;;;17.40;99.90;;;;;;5008343;28;20040;-71
2023/09/22 11:28:36;;;;;;;3.53;0.50;;;17.40;99.90;;;;;;5008981;28;20050;-72
2023/09/22 11:31:19;;;;;;;2.55;0.40;;;17.40;99.90;;;;;;5011699;28;20084;-71
2023/09/22 11:33:58;;;;;;;1.48;0.13;;;17.30;99.90;;;;;;5001995;28;20038;-73
2023/09/22 11:36:23;;;;;;;1.00;0.35;;;17.30;99.90;;;;;;5002835;28;20490;-72
2023/09/22 11:38:53;;;;;;;1.70;0.25;;;17.40;99.90;;;;;;5002282;28;20048;-71
2023/09/22 11:41:21;;;;;;;0.50;0.40;;;17.50;99.90;;;;;;5002643;28;20033;-71
2023/09/22 11:43:52;;;;;;;0.52;0.10;;;17.60;99.90;;;;;;5001990;28;20041;-71
2023/09/22 11:46:28;;;;;;;1.98;0.35;;;17.60;99.90;;;;;;5004572;28;20108;-71
2023/09/22 11:49:04;;;;;;;1.20;0.30;;;17.80;99.90;;;;;;5010361;28;20083;-73
2023/09/22 11:51:50;;;;;;;0.40;0.17;;;17.80;99.90;;;;;;5001087;28;20545;-73
2023/09/22 11:54:17;;;;;;;1.10;0.50;;;17.80;99.90;;;;;;5013960;28;20045;-72
2023/09/22 11:56:43;;;;;;;1.40;0.20;;;17.90;99.90;;;;;;5011402;28;20521;-71
2023/09/22 11:59:18;;;;;;;0.85;0.22;;;18.00;99.90;;;;;;5011280;28;20045;-71
2023/09/22 12:01:45;;;;;;;0.75;0.40;;;17.90;99.90;;;;;;4997779;28;20033;-72
2023/09/22 12:04:11;;;;;;;0.75;0.10;;;17.90;99.90;;;;;;5000668;28;20034;-72
2023/09/22 12:06:40;;;;;;;1.23;0.10;;;17.90;99.90;;;;;;5006954;28;20037;-71
2023/09/22 12:09:15;;;;;;;0.82;0.20;;;17.90;99.90;;;;;;5012243;28;20041;-73
2023/09/22 12:11:41;;;;;;;0.57;0.20;;;17.80;99.90;;;;;;5005114;28;20057;-72
2023/09/22 12:14:07;;;;;;;1.25;0.20;;;17.90;99.90;;;;;;5016063;28;20107;-72
2023/09/22 12:16:33;;;;;;;0.90;0.20;;;18.00;99.90;;;;;;5018182;28;20033;-73
2023/09/22 12:18:59;;;;;;;1.23;0.50;;;18.00;99.90;;;;;;5019258;28;20044;-72
2023/09/22 12:21:29;;;;;;;2.20;0.50;;;18.10;99.90;;;;;;5006583;28;20117;-72
2023/09/22 12:23:55;;;;;;;1.42;0.20;;;18.10;99.90;;;;;;4998978;28;20031;-71
2023/09/22 12:26:21;;;;;;;2.15;0.40;;;18.10;99.90;;;;;;5005105;28;20438;-72
2023/09/22 12:28:49;;;;;;;0.77;0.32;;;18.10;99.90;;;;;;5000543;28;20030;-73
2023/09/22 12:31:15;;;;;;;0.40;0.13;;;18.00;99.90;;;;;;5011653;28;20038;-72
2023/09/22 12:33:41;;;;;;;1.27;0.17;;;18.00;99.90;;;;;;5012565;28;20596;-73
2023/09/22 12:36:08;;;;;;;2.45;0.17;;;18.00;99.90;;;;;;5024369;28;20025;-73
2023/09/22 12:38:35;;;;;;;1.88;0.30;;;18.00;99.90;;;;;;5015952;28;20041;-71
2023/09/22 12:41:01;;;;;;;0.40;0.10;;;18.00;99.90;;;;;;5017440;28;20120;-72
2023/09/22 12:43:27;;;;;;;0.50;0.10;;;17.90;99.90;;;;;;5026808;28;20029;-74